Time;durP1;ratioP1;P1;durP2;ratioP2;P2;SDS_P1;SDS_P2;PMS_P1;PMS_P2;Temp;Humidity;BMP_temperature;BMP_pressure;BME280_temperature;BME280_humidity;BME280_pressure;Samples;Min_cycle;Max_cycle;Signal;HPM_P1;HPM_P2
2023/01/08 00:02:04;;;;;;;7.40;5.27;;;;;;;;;;5082959;28;20197;-81
2023/01/08 00:04:31;;;;;;;5.43;4.43;;;;;;;;;;5090667;28;20220;-81
2023/01/08 00:06:58;;;;;;;9.27;5.10;;;;;;;;;;5075619;28;20293;-81
2023/01/08 00:09:25;;;;;;;6.37;5.20;;;;;;;;;;5107310;28;20671;-81
2023/01/08 00:11:52;;;;;;;6.90;5.10;;;;;;;;;;5104137;28;20200;-81
2023/01/08 00:14:20;;;;;;;6.03;5.03;;;;;;;;;;5113868;28;20261;-81
2023/01/08 00:16:47;;;;;;;7.67;5.20;;;;;;;;;;5091566;28;20251;-81
2023/01/08 00:19:14;;;;;;;6.93;4.77;;;;;;;;;;5108882;28;20636;-81
2023/01/08 00:21:41;;;;;;;5.17;4.30;;;;;;;;;;5113499;28;20257;-81
2023/01/08 00:24:08;;;;;;;4.43;4.00;;;;;;;;;;5108642;28;20709;-81
2023/01/08 00:26:35;;;;;;;5.70;5.20;;;;;;;;;;5087384;28;20582;-81
2023/01/08 00:29:02;;;;;;;6.43;4.17;;;;;;;;;;5086086;28;20212;-81
2023/01/08 00:31:30;;;;;;;4.47;4.03;;;;;;;;;;5113401;28;20199;-81
2023/01/08 00:33:57;;;;;;;7.50;5.73;;;;;;;;;;5112626;28;20693;-80
2023/01/08 00:36:24;;;;;;;6.53;5.13;;;;;;;;;;5113771;28;20195;-80
2023/01/08 00:38:51;;;;;;;5.27;4.43;;;;;;;;;;5099477;28;20223;-80
2023/01/08 00:41:18;;;;;;;5.30;4.73;;;;;;;;;;5094593;28;20264;-81
2023/01/08 00:43:44;;;;;;;5.90;4.97;;;;;;;;;;5113150;28;20936;-80
2023/01/08 00:46:11;;;;;;;6.70;6.00;;;;;;;;;;5113253;28;20200;-81
2023/01/08 00:48:39;;;;;;;8.00;5.60;;;;;;;;;;5106430;28;20203;-80
2023/01/08 00:51:08;;;;;;;8.63;6.37;;;;;;;;;;5090469;28;20261;-81
2023/01/08 00:53:36;;;;;;;6.53;4.73;;;;;;;;;;5092650;28;20204;-80
2023/01/08 00:56:05;;;;;;;6.70;4.63;;;;;;;;;;5106105;28;20203;-81
2023/01/08 00:58:32;;;;;;;5.93;4.47;;;;;;;;;;5112735;28;20230;-80
2023/01/08 01:00:59;;;;;;;5.77;4.80;;;;;;;;;;5111958;28;20215;-81
2023/01/08 01:03:26;;;;;;;5.10;4.33;;;;;;;;;;5113203;28;20204;-80
2023/01/08 01:06:01;;;;;;;4.67;4.27;;;;;;;;;;5094071;28;20272;-80
2023/01/08 01:08:28;;;;;;;4.10;3.53;;;;;;;;;;5112382;28;20282;-80
2023/01/08 01:10:54;;;;;;;4.50;3.43;;;;;;;;;;5081750;28;20738;-79
2023/01/08 01:13:21;;;;;;;4.47;4.07;;;;;;;;;;5091987;28;20691;-81
2023/01/08 01:15:57;;;;;;;5.33;4.30;;;;;;;;;;5095601;28;20693;-79
2023/01/08 01:18:23;;;;;;;4.40;4.00;;;;;;;;;;5112331;28;20295;-80
2023/01/08 01:20:51;;;;;;;4.70;4.30;;;;;;;;;;5107268;28;20200;-80
2023/01/08 01:23:19;;;;;;;4.07;3.60;;;;;;;;;;5091714;28;20236;-80
2023/01/08 01:25:46;;;;;;;9.60;4.37;;;;;;;;;;5091530;28;20740;-80
2023/01/08 01:28:12;;;;;;;3.70;3.20;;;;;;;;;;5104346;28;20617;-80
2023/01/08 01:30:39;;;;;;;3.47;3.17;;;;;;;;;;5097871;28;20252;-81
2023/01/08 01:33:06;;;;;;;12.20;9.67;;;;;;;;;;5112033;28;20212;-80
2023/01/08 01:35:33;;;;;;;9.47;6.57;;;;;;;;;;5093060;28;20245;-81
2023/01/08 01:38:00;;;;;;;5.37;4.83;;;;;;;;;;5092103;28;20224;-80
2023/01/08 01:40:28;;;;;;;12.77;10.00;;;;;;;;;;5091160;28;20681;-80
2023/01/08 01:42:54;;;;;;;6.00;5.37;;;;;;;;;;5091715;28;20208;-79
2023/01/08 01:45:23;;;;;;;6.30;5.40;;;;;;;;;;5091761;28;20207;-80
2023/01/08 01:47:55;;;;;;;5.50;4.90;;;;;;;;;;5091989;28;20215;-80
2023/01/08 01:50:24;;;;;;;3.80;3.50;;;;;;;;;;5098326;28;20294;-80
2023/01/08 01:52:53;;;;;;;18.77;10.57;;;;;;;;;;5097484;28;20211;-80
2023/01/08 01:55:20;;;;;;;46.80;23.43;;;;;;;;;;5111968;28;20704;-80
2023/01/08 01:57:51;;;;;;;269.60;114.53;;;;;;;;;;5111348;28;20276;-79
2023/01/08 02:00:18;;;;;;;247.17;99.83;;;;;;;;;;5111826;28;20203;-79
2023/01/08 02:02:45;;;;;;;42.43;19.23;;;;;;;;;;5111005;28;20214;-80
2023/01/08 02:05:12;;;;;;;11.40;5.93;;;;;;;;;;5111320;28;20235;-80
2023/01/08 02:07:44;;;;;;;4.53;3.90;;;;;;;;;;5095400;28;20204;-81
2023/01/08 02:10:13;;;;;;;3.53;3.20;;;;;;;;;;5091480;28;20663;-80
2023/01/08 02:12:44;;;;;;;3.00;2.70;;;;;;;;;;5091088;28;20594;-80
2023/01/08 02:15:16;;;;;;;4.83;4.03;;;;;;;;;;5090785;28;20674;-80
2023/01/08 02:17:47;;;;;;;5.40;4.60;;;;;;;;;;5090369;28;20216;-80
2023/01/08 02:20:17;;;;;;;6.17;5.03;;;;;;;;;;5090550;28;20200;-80
2023/01/08 02:23:10;;;;;;;26.33;15.53;;;;;;;;;;5078030;28;20261;-80
2023/01/08 02:25:55;;;;;;;43.10;28.83;;;;;;;;;;5090525;28;20269;-80
2023/01/08 02:28:22;;;;;;;29.40;18.10;;;;;;;;;;5091044;28;20662;-79
2023/01/08 02:30:49;;;;;;;14.50;10.67;;;;;;;;;;5110362;28;20195;-79
2023/01/08 02:33:16;;;;;;;7.80;6.87;;;;;;;;;;5097630;28;20287;-80
2023/01/08 02:35:46;;;;;;;5.87;5.30;;;;;;;;;;5077534;28;20199;-79
2023/01/08 02:38:14;;;;;;;4.00;3.43;;;;;;;;;;5090337;28;20247;-80
2023/01/08 02:40:51;;;;;;;5.70;3.83;;;;;;;;;;5090832;28;20211;-80
2023/01/08 02:43:24;;;;;;;4.67;3.43;;;;;;;;;;5093235;28;20629;-80
2023/01/08 02:45:55;;;;;;;5.40;3.63;;;;;;;;;;5111023;28;20203;-80
2023/01/08 02:48:31;;;;;;;3.73;3.43;;;;;;;;;;5093130;28;20200;-80
2023/01/08 02:51:00;;;;;;;4.07;3.67;;;;;;;;;;5090155;28;20196;-79
2023/01/08 02:53:29;;;;;;;3.83;3.43;;;;;;;;;;5090169;28;20295;-79
2023/01/08 02:55:58;;;;;;;5.80;3.63;;;;;;;;;;5090425;28;20212;-80
2023/01/08 02:58:30;;;;;;;5.17;3.67;;;;;;;;;;5090491;28;20648;-80
2023/01/08 03:00:57;;;;;;;5.00;3.47;;;;;;;;;;5090164;28;20675;-80
2023/01/08 03:03:26;;;;;;;4.67;3.40;;;;;;;;;;5089970;28;20212;-80
2023/01/08 03:05:56;;;;;;;3.93;3.57;;;;;;;;;;5090295;28;20690;-79
2023/01/08 03:08:23;;;;;;;4.67;3.40;;;;;;;;;;5090249;28;20249;-80
2023/01/08 03:10:54;;;;;;;5.57;3.50;;;;;;;;;;5076708;28;20213;-80
2023/01/08 03:13:24;;;;;;;4.17;3.50;;;;;;;;;;5099848;28;20203;-79
2023/01/08 03:15:55;;;;;;;3.57;2.77;;;;;;;;;;5110046;28;20196;-80
2023/01/08 03:18:26;;;;;;;3.43;2.90;;;;;;;;;;5088192;28;20228;-80
2023/01/08 03:20:53;;;;;;;4.77;4.03;;;;;;;;;;5083274;28;20193;-80
2023/01/08 03:23:21;;;;;;;5.53;3.83;;;;;;;;;;5082032;28;20209;-80
2023/01/08 03:25:48;;;;;;;6.40;4.53;;;;;;;;;;5090033;28;20196;-80
2023/01/08 03:28:18;;;;;;;4.67;4.27;;;;;;;;;;5091066;28;20882;-80
2023/01/08 03:30:46;;;;;;;7.67;4.77;;;;;;;;;;5088040;28;20197;-79
2023/01/08 03:33:15;;;;;;;5.17;3.80;;;;;;;;;;5099911;28;20264;-81
2023/01/08 03:35:44;;;;;;;6.50;4.13;;;;;;;;;;5114493;28;20727;-80
2023/01/08 03:38:15;;;;;;;3.97;3.57;;;;;;;;;;5101104;28;20216;-79
2023/01/08 03:40:46;;;;;;;4.17;3.77;;;;;;;;;;5105696;28;20261;-80
2023/01/08 03:43:12;;;;;;;5.90;5.07;;;;;;;;;;5093763;28;20287;-80
2023/01/08 03:45:42;;;;;;;6.90;4.90;;;;;;;;;;5094114;28;20200;-80
2023/01/08 03:48:10;;;;;;;6.37;5.77;;;;;;;;;;5093823;28;20209;-79
2023/01/08 03:50:38;;;;;;;5.03;4.40;;;;;;;;;;5094130;28;20200;-79
2023/01/08 03:53:04;;;;;;;4.87;3.40;;;;;;;;;;5097442;28;20206;-80
2023/01/08 03:55:31;;;;;;;7.10;5.57;;;;;;;;;;5113917;28;20203;-79
2023/01/08 03:57:58;;;;;;;7.00;4.83;;;;;;;;;;5113585;28;20615;-80
2023/01/08 04:00:25;;;;;;;6.07;5.07;;;;;;;;;;5114388;28;20204;-80
2023/01/08 04:02:51;;;;;;;5.30;4.80;;;;;;;;;;5096299;28;20655;-79
2023/01/08 04:05:18;;;;;;;4.77;4.27;;;;;;;;;;5093388;28;20224;-80
2023/01/08 04:07:46;;;;;;;4.00;3.70;;;;;;;;;;5093385;28;20594;-81
2023/01/08 04:10:13;;;;;;;6.93;4.23;;;;;;;;;;5093286;28;20291;-80
2023/01/08 04:12:42;;;;;;;5.63;4.50;;;;;;;;;;5093209;28;20196;-80
2023/01/08 04:15:09;;;;;;;7.73;5.33;;;;;;;;;;5104986;28;20645;-79
2023/01/08 04:17:36;;;;;;;7.93;5.03;;;;;;;;;;5113989;28;20222;-79
2023/01/08 04:20:03;;;;;;;3.80;3.50;;;;;;;;;;5089893;28;20221;-79
2023/01/08 04:22:30;;;;;;;4.70;3.60;;;;;;;;;;5110584;28;20200;-79
2023/01/08 04:24:58;;;;;;;4.07;3.70;;;;;;;;;;5077923;28;20703;-80
2023/01/08 04:27:25;;;;;;;6.17;4.07;;;;;;;;;;5097695;28;20196;-79
2023/01/08 04:29:52;;;;;;;5.90;4.80;;;;;;;;;;5113305;28;20207;-79
2023/01/08 04:32:18;;;;;;;5.10;4.60;;;;;;;;;;5112979;28;20200;-79
2023/01/08 04:34:45;;;;;;;5.97;4.67;;;;;;;;;;5113434;28;20280;-80
2023/01/08 04:37:12;;;;;;;31.70;17.13;;;;;;;;;;5107180;28;20208;-80
2023/01/08 04:39:40;;;;;;;15.17;6.53;;;;;;;;;;5105272;28;20285;-79
2023/01/08 04:42:08;;;;;;;6.40;4.90;;;;;;;;;;5092748;28;20208;-79
2023/01/08 04:44:34;;;;;;;4.70;4.30;;;;;;;;;;5106083;28;20678;-80
2023/01/08 04:47:01;;;;;;;4.20;3.80;;;;;;;;;;5112980;28;20192;-80
2023/01/08 04:49:28;;;;;;;4.60;3.57;;;;;;;;;;5111182;28;20203;-80
2023/01/08 04:51:55;;;;;;;3.50;3.20;;;;;;;;;;5085922;28;20332;-79
2023/01/08 04:54:21;;;;;;;4.97;3.23;;;;;;;;;;5113200;28;20207;-80
2023/01/08 04:56:50;;;;;;;4.63;3.17;;;;;;;;;;5113186;28;20252;-80
2023/01/08 04:59:18;;;;;;;10.10;8.60;;;;;;;;;;5112369;28;20258;-80
2023/01/08 05:01:45;;;;;;;8.17;6.30;;;;;;;;;;5112822;28;20583;-80
2023/01/08 05:04:12;;;;;;;3.37;3.07;;;;;;;;;;5112568;28;20235;-79
2023/01/08 05:06:39;;;;;;;4.60;3.87;;;;;;;;;;5112904;28;20203;-79
2023/01/08 05:09:05;;;;;;;15.33;11.60;;;;;;;;;;5111009;28;20207;-79
2023/01/08 05:11:32;;;;;;;8.67;5.43;;;;;;;;;;5092389;28;20200;-79
2023/01/08 05:13:59;;;;;;;6.53;4.33;;;;;;;;;;5092261;28;20690;-79
2023/01/08 05:16:27;;;;;;;21.87;12.27;;;;;;;;;;5092538;28;20204;-79
2023/01/08 05:18:54;;;;;;;19.83;12.70;;;;;;;;;;5091570;28;20287;-80
2023/01/08 05:21:21;;;;;;;20.20;11.40;;;;;;;;;;5092288;28;20201;-79
2023/01/08 05:23:48;;;;;;;13.10;8.20;;;;;;;;;;5091903;28;20204;-79
2023/01/08 05:26:15;;;;;;;7.00;5.50;;;;;;;;;;5091699;28;20215;-79
2023/01/08 05:28:42;;;;;;;7.63;5.33;;;;;;;;;;5091957;28;20208;-79
2023/01/08 05:31:10;;;;;;;7.20;6.27;;;;;;;;;;5091697;28;20204;-80
2023/01/08 05:33:39;;;;;;;10.93;6.00;;;;;;;;;;5091854;28;20197;-79
2023/01/08 05:36:08;;;;;;;6.57;5.20;;;;;;;;;;5091997;28;20196;-79
2023/01/08 05:38:35;;;;;;;8.60;5.57;;;;;;;;;;5091316;28;20223;-79
2023/01/08 05:41:02;;;;;;;8.73;6.13;;;;;;;;;;5091673;28;20196;-79
2023/01/08 05:43:29;;;;;;;11.30;6.27;;;;;;;;;;5109659;28;20219;-80
2023/01/08 05:45:58;;;;;;;7.90;5.73;;;;;;;;;;5111073;28;20195;-79
2023/01/08 05:48:25;;;;;;;17.30;11.83;;;;;;;;;;5084741;28;20199;-79
2023/01/08 05:50:53;;;;;;;13.17;9.60;;;;;;;;;;5110687;28;20204;-79
2023/01/08 05:53:19;;;;;;;10.50;6.10;;;;;;;;;;5111987;28;20221;-83
2023/01/08 05:55:47;;;;;;;4.20;3.67;;;;;;;;;;5108708;28;20191;-80
2023/01/08 05:58:17;;;;;;;6.20;4.10;;;;;;;;;;5100337;28;20592;-80
2023/01/08 06:00:44;;;;;;;5.30;4.33;;;;;;;;;;5077822;28;20195;-80
2023/01/08 06:03:11;;;;;;;5.10;4.60;;;;;;;;;;5091577;28;20200;-84
2023/01/08 06:05:38;;;;;;;4.80;3.03;;;;;;;;;;5099740;28;20711;-80
2023/01/08 06:08:06;;;;;;;4.70;3.53;;;;;;;;;;5083128;28;20683;-80
2023/01/08 06:10:33;;;;;;;5.73;4.13;;;;;;;;;;5090974;28;20200;-82
2023/01/08 06:13:00;;;;;;;4.03;3.67;;;;;;;;;;5079142;28;20228;-82
2023/01/08 06:15:30;;;;;;;7.47;5.07;;;;;;;;;;5076651;28;20208;-81
2023/01/08 06:17:57;;;;;;;8.93;7.67;;;;;;;;;;5087027;28;20345;-82
2023/01/08 06:20:24;;;;;;;10.80;9.27;;;;;;;;;;5084605;28;20221;-82
2023/01/08 06:22:50;;;;;;;9.93;8.20;;;;;;;;;;5084294;28;20211;-79
2023/01/08 06:25:19;;;;;;;23.27;15.53;;;;;;;;;;5083086;28;20248;-83
2023/01/08 06:27:45;;;;;;;28.47;18.33;;;;;;;;;;5110427;28;20203;-80
2023/01/08 06:30:12;;;;;;;10.20;6.00;;;;;;;;;;5089592;28;20212;-83
2023/01/08 06:32:39;;;;;;;7.70;5.73;;;;;;;;;;5095545;28;20219;-81
2023/01/08 06:35:07;;;;;;;20.97;14.20;;;;;;;;;;5102042;28;20203;-81
2023/01/08 06:37:34;;;;;;;23.80;15.57;;;;;;;;;;5087483;28;20204;-82
2023/01/08 06:40:01;;;;;;;29.77;18.37;;;;;;;;;;5086988;28;20763;-82
2023/01/08 06:42:29;;;;;;;38.73;23.20;;;;;;;;;;5090015;28;20254;-83
2023/01/08 06:44:56;;;;;;;19.00;14.27;;;;;;;;;;5078280;28;20200;-83
2023/01/08 06:47:23;;;;;;;16.13;12.73;;;;;;;;;;5085363;28;20207;-84
2023/01/08 06:49:50;;;;;;;27.17;19.20;;;;;;;;;;5099630;28;20256;-83
2023/01/08 06:52:17;;;;;;;30.53;21.30;;;;;;;;;;5092212;28;20204;-83
2023/01/08 06:54:44;;;;;;;30.93;23.40;;;;;;;;;;5078340;28;20205;-83
2023/01/08 06:57:11;;;;;;;31.27;20.33;;;;;;;;;;5069106;28;20208;-82
2023/01/08 06:59:40;;;;;;;23.23;18.20;;;;;;;;;;5072679;28;20405;-82
2023/01/08 07:02:09;;;;;;;24.00;16.13;;;;;;;;;;5077068;28;20200;-82
2023/01/08 07:04:36;;;;;;;17.80;12.63;;;;;;;;;;5090530;28;20281;-82
2023/01/08 07:07:03;;;;;;;10.20;8.50;;;;;;;;;;5085089;28;20586;-82
2023/01/08 07:09:30;;;;;;;10.67;6.40;;;;;;;;;;5093126;28;20204;-81
2023/01/08 07:11:57;;;;;;;9.13;8.23;;;;;;;;;;5075460;28;20206;-81
2023/01/08 07:14:27;;;;;;;10.47;8.07;;;;;;;;;;5091014;28;20242;-81
2023/01/08 07:16:55;;;;;;;12.80;9.87;;;;;;;;;;5089962;28;20203;-81
2023/01/08 07:19:22;;;;;;;20.77;15.33;;;;;;;;;;5086849;28;20227;-81
2023/01/08 07:21:49;;;;;;;27.37;20.20;;;;;;;;;;5109722;28;20226;-82
2023/01/08 07:24:17;;;;;;;29.27;21.90;;;;;;;;;;5083025;28;20288;-83
2023/01/08 07:26:44;;;;;;;27.93;19.27;;;;;;;;;;5109802;28;20203;-83
2023/01/08 07:29:11;;;;;;;20.97;18.37;;;;;;;;;;5090289;28;20219;-82
2023/01/08 07:31:38;;;;;;;20.73;17.37;;;;;;;;;;5086033;28;20212;-83
2023/01/08 07:34:06;;;;;;;34.40;21.87;;;;;;;;;;5076789;28;20200;-82
2023/01/08 07:36:33;;;;;;;19.67;14.80;;;;;;;;;;5090610;28;20398;-82
2023/01/08 07:39:00;;;;;;;18.80;14.17;;;;;;;;;;5066032;28;20199;-82
2023/01/08 07:41:27;;;;;;;23.87;16.90;;;;;;;;;;5110455;28;20635;-85
2023/01/08 07:43:54;;;;;;;24.17;13.97;;;;;;;;;;5092764;28;20248;-88
2023/01/08 07:46:22;;;;;;;19.53;15.10;;;;;;;;;;5094791;28;20206;-83
2023/01/08 07:48:54;;;;;;;20.23;14.57;;;;;;;;;;5087784;28;20379;-83
2023/01/08 07:51:28;;;;;;;22.33;14.53;;;;;;;;;;5104511;28;20208;-86
2023/01/08 07:53:56;;;;;;;20.73;14.87;;;;;;;;;;5097445;28;20208;-85
2023/01/08 07:56:25;;;;;;;19.10;14.77;;;;;;;;;;5060065;28;20314;-88
2023/01/08 07:58:52;;;;;;;17.87;15.30;;;;;;;;;;5090485;28;20254;-90
2023/01/08 08:01:21;;;;;;;23.80;15.27;;;;;;;;;;5072293;28;20236;-83
2023/01/08 08:03:48;;;;;;;19.77;13.73;;;;;;;;;;5103838;28;20777;-83
2023/01/08 08:06:15;;;;;;;20.93;14.43;;;;;;;;;;5082126;28;20236;-84
2023/01/08 08:08:43;;;;;;;16.63;14.90;;;;;;;;;;5098653;28;20635;-81
2023/01/08 08:11:10;;;;;;;18.37;14.73;;;;;;;;;;5099010;28;20690;-84
2023/01/08 08:13:41;;;;;;;20.00;15.50;;;;;;;;;;5106941;28;20204;-84
2023/01/08 08:16:10;;;;;;;19.23;14.17;;;;;;;;;;5039754;28;20238;-83
2023/01/08 08:18:38;;;;;;;20.53;15.90;;;;;;;;;;5093541;28;20199;-86
2023/01/08 08:21:08;;;;;;;34.97;23.30;;;;;;;;;;5096877;28;20251;-85
2023/01/08 08:23:35;;;;;;;18.33;14.27;;;;;;;;;;5114071;28;20207;-84
2023/01/08 08:26:06;;;;;;;16.87;12.20;;;;;;;;;;5085256;28;20208;-84
2023/01/08 08:28:33;;;;;;;19.40;11.17;;;;;;;;;;5081051;28;20218;-84
2023/01/08 08:31:00;;;;;;;12.27;9.07;;;;;;;;;;5114470;28;20220;-84
2023/01/08 08:33:27;;;;;;;7.40;6.67;;;;;;;;;;5113899;28;20648;-83
2023/01/08 08:35:54;;;;;;;10.63;7.13;;;;;;;;;;5087345;28;20219;-83
2023/01/08 08:38:21;;;;;;;10.27;8.10;;;;;;;;;;5107166;28;20207;-83
2023/01/08 08:40:48;;;;;;;10.13;7.43;;;;;;;;;;5093835;28;20285;-84
2023/01/08 08:43:17;;;;;;;4.83;3.93;;;;;;;;;;5088985;28;20207;-85
2023/01/08 08:45:44;;;;;;;4.97;4.57;;;;;;;;;;5058838;28;20216;-84
2023/01/08 08:48:15;;;;;;;8.53;6.70;;;;;;;;;;5075182;28;20258;-84
2023/01/08 08:50:43;;;;;;;6.83;6.13;;;;;;;;;;5082451;28;20197;-83
2023/01/08 08:53:10;;;;;;;5.87;5.17;;;;;;;;;;5056522;28;20281;-83
2023/01/08 08:55:37;;;;;;;9.90;4.87;;;;;;;;;;5105009;28;20207;-86
2023/01/08 08:58:06;;;;;;;6.50;4.30;;;;;;;;;;5098980;28;20221;-86
2023/01/08 09:00:35;;;;;;;5.33;4.83;;;;;;;;;;5096546;28;20239;-86
2023/01/08 09:03:02;;;;;;;5.17;4.33;;;;;;;;;;5079044;28;20207;-81
2023/01/08 09:05:30;;;;;;;7.23;4.97;;;;;;;;;;5113108;28;20227;-85
2023/01/08 09:07:58;;;;;;;4.97;4.50;;;;;;;;;;5092988;28;20358;-86
2023/01/08 09:10:26;;;;;;;6.80;4.47;;;;;;;;;;5085272;28;20218;-87
2023/01/08 09:12:54;;;;;;;46.33;26.50;;;;;;;;;;5075452;28;20208;-87
2023/01/08 09:15:22;;;;;;;12.17;8.67;;;;;;;;;;5075198;28;20312;-87
2023/01/08 09:17:55;;;;;;;16.50;12.20;;;;;;;;;;5079750;28;20624;-86
2023/01/08 09:20:23;;;;;;;58.07;32.03;;;;;;;;;;5106770;28;20709;-85
2023/01/08 09:22:50;;;;;;;21.80;12.07;;;;;;;;;;5103804;28;20196;-86
2023/01/08 09:25:17;;;;;;;20.80;13.20;;;;;;;;;;5089703;28;20210;-86
2023/01/08 09:27:44;;;;;;;18.40;13.23;;;;;;;;;;5103543;28;20216;-86
2023/01/08 09:30:15;;;;;;;5.77;5.23;;;;;;;;;;5060542;28;20593;-85
2023/01/08 09:32:43;;;;;;;28.50;18.40;;;;;;;;;;5092709;28;20286;-86
2023/01/08 09:35:11;;;;;;;8.53;6.10;;;;;;;;;;5061720;28;20591;-85
2023/01/08 09:37:39;;;;;;;15.63;10.07;;;;;;;;;;5085827;28;20207;-86
2023/01/08 09:40:10;;;;;;;6.17;5.50;;;;;;;;;;5087103;28;20238;-85
2023/01/08 09:42:38;;;;;;;10.37;9.27;;;;;;;;;;5073594;28;20216;-85
2023/01/08 09:45:25;;;;;;;8.40;7.40;;;;;;;;;;5083259;28;20201;-85
2023/01/08 09:47:52;;;;;;;9.17;7.67;;;;;;;;;;5090667;28;20204;-86
2023/01/08 09:50:21;;;;;;;8.10;5.43;;;;;;;;;;5062059;28;20271;-85
2023/01/08 09:52:51;;;;;;;6.20;4.77;;;;;;;;;;5075337;28;20279;-85
2023/01/08 09:55:18;;;;;;;19.67;14.37;;;;;;;;;;5093574;28;20200;-86
2023/01/08 09:57:46;;;;;;;15.17;10.87;;;;;;;;;;5083132;28;20206;-85
2023/01/08 10:00:16;;;;;;;15.23;8.73;;;;;;;;;;5091107;28;20228;-85
2023/01/08 10:02:44;;;;;;;7.47;5.93;;;;;;;;;;5056689;28;20588;-85
2023/01/08 10:05:13;;;;;;;9.50;7.13;;;;;;;;;;5091667;28;20235;-85
2023/01/08 10:07:42;;;;;;;10.30;6.90;;;;;;;;;;5098766;28;20207;-85
2023/01/08 10:10:19;;;;;;;20.00;10.00;;;;;;;;;;5090920;28;20683;-84
2023/01/08 10:12:50;;;;;;;10.20;8.23;;;;;;;;;;5073210;28;20286;-85
2023/01/08 10:15:18;;;;;;;6.43;5.10;;;;;;;;;;5091220;28;20203;-83
2023/01/08 10:17:49;;;;;;;14.73;8.90;;;;;;;;;;5091311;28;20200;-84
2023/01/08 10:20:18;;;;;;;10.97;8.03;;;;;;;;;;5092623;28;20234;-83
2023/01/08 10:22:48;;;;;;;7.30;5.73;;;;;;;;;;5093994;28;20283;-83
2023/01/08 10:25:18;;;;;;;24.37;15.67;;;;;;;;;;5071311;28;20232;-86
2023/01/08 10:27:49;;;;;;;32.40;15.40;;;;;;;;;;5089255;28;20204;-84
2023/01/08 10:30:18;;;;;;;18.80;9.73;;;;;;;;;;5097229;28;20260;-85
2023/01/08 10:32:52;;;;;;;25.67;15.57;;;;;;;;;;5081892;28;20216;-84
2023/01/08 10:35:21;;;;;;;22.30;15.37;;;;;;;;;;5039927;28;20248;-85
2023/01/08 10:37:50;;;;;;;39.47;20.60;;;;;;;;;;5062192;28;20213;-85
2023/01/08 10:40:29;;;;;;;36.57;20.80;;;;;;;;;;5057187;28;20220;-85
2023/01/08 10:42:57;;;;;;;27.63;16.13;;;;;;;;;;5078474;28;20228;-85
2023/01/08 10:45:25;;;;;;;26.23;16.17;;;;;;;;;;5063083;28;20227;-86
2023/01/08 10:47:56;;;;;;;17.23;11.37;;;;;;;;;;5084343;28;20208;-86
2023/01/08 10:50:25;;;;;;;10.50;8.40;;;;;;;;;;5059390;28;20209;-86
2023/01/08 10:52:55;;;;;;;16.27;9.27;;;;;;;;;;5089858;28;20197;-86
2023/01/08 10:55:27;;;;;;;12.60;7.50;;;;;;;;;;5079417;28;20360;-86
2023/01/08 10:57:56;;;;;;;9.17;6.17;;;;;;;;;;5088749;28;20212;-85
2023/01/08 11:00:26;;;;;;;9.10;7.27;;;;;;;;;;5080016;28;20277;-86
2023/01/08 11:02:53;;;;;;;12.97;7.47;;;;;;;;;;5072633;28;20269;-85
2023/01/08 11:05:21;;;;;;;11.73;7.93;;;;;;;;;;5062883;28;20229;-86
2023/01/08 11:07:49;;;;;;;18.03;11.00;;;;;;;;;;5073692;28;20593;-86
2023/01/08 11:10:26;;;;;;;12.17;8.90;;;;;;;;;;5110820;28;20647;-85
2023/01/08 11:12:58;;;;;;;11.87;7.47;;;;;;;;;;5110533;28;20214;-86
2023/01/08 11:15:33;;;;;;;9.40;7.30;;;;;;;;;;5097967;28;20674;-86
2023/01/08 11:18:19;;;;;;;7.90;5.57;;;;;;;;;;5061082;28;20208;-86
2023/01/08 11:20:47;;;;;;;30.73;18.20;;;;;;;;;;5077296;28;20222;-85
2023/01/08 11:23:19;;;;;;;14.30;7.83;;;;;;;;;;5090510;28;20208;-85
2023/01/08 11:25:52;;;;;;;10.87;7.03;;;;;;;;;;5073195;28;20211;-85
2023/01/08 11:28:25;;;;;;;10.00;5.60;;;;;;;;;;5090755;28;20204;-86
2023/01/08 11:30:56;;;;;;;33.80;17.63;;;;;;;;;;5096294;28;20219;-86
2023/01/08 11:33:29;;;;;;;8.13;4.63;;;;;;;;;;5083745;28;20204;-86
2023/01/08 11:36:00;;;;;;;8.13;4.97;;;;;;;;;;5102186;28;20200;-85
2023/01/08 11:38:28;;;;;;;17.27;12.03;;;;;;;;;;5089299;28;20204;-84
2023/01/08 11:41:09;;;;;;;21.10;12.90;;;;;;;;;;5070582;28;20217;-85
2023/01/08 11:43:45;;;;;;;17.67;10.80;;;;;;;;;;5086590;28;20228;-85
2023/01/08 11:46:26;;;;;;;28.70;16.30;;;;;;;;;;5090689;28;20200;-85
2023/01/08 11:49:07;;;;;;;21.27;12.77;;;;;;;;;;5090115;28;20574;-85
2023/01/08 11:51:44;;;;;;;8.47;6.47;;;;;;;;;;5072488;28;20200;-85
2023/01/08 11:54:24;;;;;;;17.97;13.40;;;;;;;;;;5076383;28;20674;-85
2023/01/08 11:57:03;;;;;;;9.53;6.37;;;;;;;;;;5083497;28;20203;-85
2023/01/08 11:59:36;;;;;;;19.73;14.13;;;;;;;;;;5098548;28;20597;-85
2023/01/08 12:02:16;;;;;;;15.70;11.27;;;;;;;;;;5076276;28;20702;-85
2023/01/08 12:04:57;;;;;;;10.73;7.17;;;;;;;;;;5113265;28;20449;-85
2023/01/08 12:07:29;;;;;;;12.80;8.50;;;;;;;;;;5113415;28;20203;-86
2023/01/08 12:09:58;;;;;;;20.33;13.87;;;;;;;;;;5076110;28;20188;-85
2023/01/08 12:12:41;;;;;;;9.33;6.47;;;;;;;;;;5096522;28;20216;-86
2023/01/08 12:15:19;;;;;;;7.33;5.50;;;;;;;;;;5103136;28;20210;-86
2023/01/08 12:18:03;;;;;;;13.47;8.67;;;;;;;;;;5113659;28;20203;-86
2023/01/08 12:20:35;;;;;;;10.70;8.77;;;;;;;;;;5096491;28;20205;-86
2023/01/08 12:23:11;;;;;;;5.60;4.43;;;;;;;;;;5059954;28;20678;-86
2023/01/08 12:25:48;;;;;;;10.73;7.07;;;;;;;;;;5063173;28;20208;-85
2023/01/08 12:28:40;;;;;;;7.80;6.10;;;;;;;;;;5086983;28;20209;-86
2023/01/08 12:31:19;;;;;;;9.73;6.53;;;;;;;;;;5088776;28;20208;-85
2023/01/08 12:33:49;;;;;;;16.33;9.10;;;;;;;;;;5087849;28;20292;-85
2023/01/08 12:36:21;;;;;;;8.00;5.60;;;;;;;;;;5051052;28;20273;-86
2023/01/08 12:38:54;;;;;;;9.27;7.00;;;;;;;;;;5093508;28;20289;-85
2023/01/08 12:41:20;;;;;;;7.77;6.67;;;;;;;;;;5075824;28;20613;-86
2023/01/08 12:43:52;;;;;;;11.57;8.47;;;;;;;;;;5093282;28;20200;-85
2023/01/08 12:46:20;;;;;;;9.33;6.53;;;;;;;;;;5047766;28;20670;-85
2023/01/08 12:49:02;;;;;;;8.93;6.53;;;;;;;;;;5083500;28;20204;-86
2023/01/08 12:51:34;;;;;;;10.00;7.57;;;;;;;;;;5098870;28;20273;-86
2023/01/08 12:54:08;;;;;;;5.67;4.43;;;;;;;;;;5067490;28;20276;-86
2023/01/08 12:56:43;;;;;;;13.83;10.00;;;;;;;;;;5081739;28;20681;-86
2023/01/08 12:59:21;;;;;;;11.63;8.03;;;;;;;;;;5074724;28;20203;-86
2023/01/08 13:01:51;;;;;;;10.10;6.97;;;;;;;;;;5099319;28;20238;-86
2023/01/08 13:04:19;;;;;;;13.13;9.13;;;;;;;;;;5062057;28;20240;-86
2023/01/08 13:07:01;;;;;;;10.07;7.73;;;;;;;;;;5068529;28;20201;-86
2023/01/08 13:09:28;;;;;;;19.37;12.10;;;;;;;;;;5076402;28;20667;-85
2023/01/08 13:11:58;;;;;;;9.53;6.07;;;;;;;;;;5095663;28;20231;-87
2023/01/08 13:14:26;;;;;;;6.57;5.87;;;;;;;;;;5091620;28;20200;-86
2023/01/08 13:17:08;;;;;;;7.37;5.67;;;;;;;;;;5092932;28;20208;-85
2023/01/08 13:19:39;;;;;;;9.57;6.03;;;;;;;;;;5085581;28;20197;-85
2023/01/08 13:22:22;;;;;;;9.03;7.53;;;;;;;;;;5085712;28;20702;-85
2023/01/08 13:24:49;;;;;;;10.17;7.17;;;;;;;;;;5091034;28;20210;-85
2023/01/08 13:27:29;;;;;;;13.60;10.57;;;;;;;;;;5112233;28;20210;-85
2023/01/08 13:29:57;;;;;;;11.63;8.47;;;;;;;;;;5101408;28;20196;-85
2023/01/08 13:32:31;;;;;;;29.43;18.03;;;;;;;;;;5106056;28;20219;-85
2023/01/08 13:35:03;;;;;;;26.77;16.97;;;;;;;;;;5106242;28;20222;-87
2023/01/08 13:37:30;;;;;;;40.13;23.07;;;;;;;;;;5112019;28;20238;-84
2023/01/08 13:39:57;;;;;;;22.27;13.03;;;;;;;;;;5112016;28;20210;-86
2023/01/08 13:42:27;;;;;;;10.33;8.43;;;;;;;;;;5086793;28;20231;-85
2023/01/08 13:45:00;;;;;;;11.17;9.00;;;;;;;;;;5093444;28;20216;-85
2023/01/08 13:47:31;;;;;;;12.80;9.37;;;;;;;;;;5112401;28;20218;-86
2023/01/08 13:49:59;;;;;;;9.37;8.30;;;;;;;;;;5108661;28;20231;-85
2023/01/08 13:52:36;;;;;;;7.60;5.70;;;;;;;;;;5073988;28;20208;-86
2023/01/08 13:55:05;;;;;;;8.27;7.33;;;;;;;;;;5091774;28;20713;-86
2023/01/08 13:57:37;;;;;;;8.60;7.00;;;;;;;;;;5091507;28;20204;-85
2023/01/08 14:00:09;;;;;;;8.43;7.00;;;;;;;;;;5078252;28;20208;-85
2023/01/08 14:02:43;;;;;;;9.13;4.87;;;;;;;;;;5087170;28;20227;-86
2023/01/08 14:05:21;;;;;;;11.43;7.07;;;;;;;;;;5071940;28;20229;-86
2023/01/08 14:07:48;;;;;;;5.60;5.03;;;;;;;;;;5087867;28;20382;-85
2023/01/08 14:10:16;;;;;;;6.77;5.90;;;;;;;;;;5111550;28;20203;-86
2023/01/08 14:12:44;;;;;;;6.73;5.33;;;;;;;;;;5089425;28;20424;-86
2023/01/08 14:15:19;;;;;;;7.37;6.37;;;;;;;;;;5089805;28;20207;-85
2023/01/08 14:17:47;;;;;;;9.80;8.03;;;;;;;;;;5099934;28;20293;-85
2023/01/08 14:20:21;;;;;;;10.07;7.77;;;;;;;;;;5075068;28;20216;-86
2023/01/08 14:22:48;;;;;;;9.20;7.37;;;;;;;;;;5096310;28;20319;-85
2023/01/08 14:25:18;;;;;;;10.57;8.00;;;;;;;;;;5092124;28;20207;-86
2023/01/08 14:27:55;;;;;;;10.43;8.53;;;;;;;;;;5094628;28;20212;-85
2023/01/08 14:30:25;;;;;;;9.20;7.33;;;;;;;;;;5074368;28;20216;-85
2023/01/08 14:32:52;;;;;;;48.67;30.30;;;;;;;;;;5063382;28;20625;-85
2023/01/08 14:35:21;;;;;;;32.70;22.07;;;;;;;;;;5104975;28;20576;-86
2023/01/08 14:37:48;;;;;;;25.63;17.93;;;;;;;;;;5100813;28;20683;-86
2023/01/08 14:40:15;;;;;;;10.43;8.77;;;;;;;;;;5069265;28;20197;-86
2023/01/08 14:42:45;;;;;;;31.03;23.33;;;;;;;;;;5082430;28;20228;-86
2023/01/08 14:45:18;;;;;;;82.20;49.90;;;;;;;;;;5091224;28;20200;-87
2023/01/08 14:47:49;;;;;;;125.63;70.97;;;;;;;;;;5090732;28;20212;-86